createdAt,value
2016-09-01T00:00:44.882Z,0
2016-09-01T00:01:44.855Z,0
2016-09-01T00:02:44.854Z,0
2016-09-01T00:03:44.844Z,0
2016-09-01T00:04:44.819Z,0
2016-09-01T00:05:44.820Z,0
2016-09-01T00:06:44.809Z,0
2016-09-01T00:07:44.776Z,0
2016-09-01T00:08:44.796Z,0
2016-09-01T00:09:44.782Z,0
2016-09-01T00:10:44.758Z,0
2016-09-01T00:11:44.745Z,0
2016-09-01T00:12:44.723Z,0
2016-09-01T00:13:44.718Z,0
2016-09-01T00:14:44.730Z,0
2016-09-01T00:15:44.688Z,0
2016-09-01T00:16:44.702Z,0
2016-09-01T00:17:44.684Z,0
2016-09-01T00:18:44.697Z,0
2016-09-01T00:19:44.668Z,0
2016-09-01T00:20:44.688Z,0
2016-09-01T00:21:44.646Z,0
2016-09-01T00:22:44.660Z,0
2016-09-01T00:23:44.651Z,0
2016-09-01T00:24:44.606Z,0
2016-09-01T00:25:45.339Z,0
2016-09-01T00:26:44.627Z,0
2016-09-01T00:27:44.608Z,0
2016-09-01T00:28:44.588Z,0
2016-09-01T00:29:44.582Z,0
2016-09-01T00:30:44.592Z,0
2016-09-01T00:31:44.570Z,0
2016-09-01T00:32:44.538Z,0
2016-09-01T00:33:44.535Z,0
2016-09-01T00:34:44.541Z,0
2016-09-01T00:35:45.224Z,0
2016-09-01T00:36:44.506Z,0
2016-09-01T00:37:44.499Z,0
2016-09-01T00:38:44.564Z,0
2016-09-01T00:39:44.468Z,0
2016-09-01T00:40:44.480Z,0
2016-09-01T00:41:44.467Z,0
2016-09-01T00:42:44.469Z,0
2016-09-01T00:43:44.429Z,0
2016-09-01T00:44:44.431Z,0
2016-09-01T00:45:44.422Z,0
2016-09-01T00:46:44.419Z,0
2016-09-01T00:47:44.381Z,0
2016-09-01T00:48:44.413Z,0
2016-09-01T00:49:44.400Z,0
2016-09-01T00:50:44.371Z,0
2016-09-01T00:51:44.383Z,0
2016-09-01T00:52:44.365Z,0
2016-09-01T00:53:44.343Z,0
2016-09-01T00:54:44.368Z,0
2016-09-01T00:55:44.326Z,0
2016-09-01T00:56:44.331Z,0
2016-09-01T00:57:44.329Z,0
2016-09-01T00:58:44.312Z,0
2016-09-01T00:59:44.296Z,0
2016-09-01T01:00:44.302Z,0
2016-09-01T01:01:44.271Z,0
2016-09-01T01:02:44.269Z,0
2016-09-01T01:03:44.259Z,0
2016-09-01T01:04:44.249Z,0
2016-09-01T01:05:44.235Z,0
2016-09-01T01:06:44.250Z,0
2016-09-01T01:07:44.236Z,0
2016-09-01T01:08:44.217Z,0
2016-09-01T01:09:44.200Z,0
2016-09-01T01:10:44.172Z,0
2016-09-01T01:11:44.879Z,0
2016-09-01T01:12:44.183Z,0
2016-09-01T01:13:44.874Z,0
2016-09-01T01:14:44.158Z,0
2016-09-01T01:15:44.140Z,0
2016-09-01T01:16:44.158Z,0
2016-09-01T01:17:44.131Z,0
2016-09-01T01:18:44.122Z,0
2016-09-01T01:19:44.118Z,0
2016-09-01T01:20:44.108Z,0
2016-09-01T01:21:44.075Z,0
2016-09-01T01:22:44.095Z,0
2016-09-01T01:23:44.071Z,0
2016-09-01T01:24:44.060Z,0
2016-09-01T01:25:44.052Z,0
2016-09-01T01:26:44.058Z,0
2016-09-01T01:27:44.045Z,0
2016-09-01T01:28:44.013Z,0
2016-09-01T01:29:44.048Z,0
2016-09-01T01:30:44.028Z,0
2016-09-01T01:31:43.996Z,0
2016-09-01T01:32:43.992Z,0
2016-09-01T01:33:43.992Z,0
2016-09-01T01:34:43.984Z,0
2016-09-01T01:35:43.970Z,0
2016-09-01T01:36:43.938Z,0
2016-09-01T01:37:43.945Z,0
2016-09-01T01:38:43.977Z,0
2016-09-01T01:39:43.910Z,0
2016-09-01T01:40:43.909Z,0
2016-09-01T01:41:43.922Z,0
2016-09-01T01:42:43.903Z,0
2016-09-01T01:43:43.892Z,0
2016-09-01T01:44:43.886Z,0
2016-09-01T01:45:43.888Z,0
2016-09-01T01:46:43.885Z,0
2016-09-01T01:47:43.868Z,0
2016-09-01T01:48:43.851Z,0
2016-09-01T01:49:43.841Z,0
2016-09-01T01:50:43.828Z,0
2016-09-01T01:51:43.825Z,0
2016-09-01T01:52:43.794Z,0
2016-09-01T01:53:43.817Z,0
2016-09-01T01:54:43.790Z,0
2016-09-01T01:55:43.783Z,0
2016-09-01T01:56:44.475Z,0
2016-09-01T01:57:44.475Z,0
2016-09-01T01:58:43.778Z,0
2016-09-01T01:59:43.733Z,0
2016-09-01T02:00:44.441Z,0
2016-09-01T02:01:43.749Z,0
2016-09-01T02:02:43.709Z,0
2016-09-01T02:03:43.722Z,0
2016-09-01T02:04:43.716Z,0
2016-09-01T02:05:43.676Z,0
2016-09-01T02:06:43.688Z,0
2016-09-01T02:07:43.663Z,0
2016-09-01T02:08:43.683Z,0
2016-09-01T02:09:43.690Z,0
2016-09-01T02:10:43.687Z,0
2016-09-01T02:11:43.680Z,0
2016-09-01T02:12:43.668Z,0
2016-09-01T02:13:43.627Z,0
2016-09-01T02:14:43.625Z,0
2016-09-01T02:15:43.646Z,0
2016-09-01T02:16:43.630Z,0
2016-09-01T02:17:43.617Z,0
2016-09-01T02:18:43.602Z,0
2016-09-01T02:19:43.587Z,0
2016-09-01T02:20:43.574Z,0
2016-09-01T02:21:43.565Z,0
2016-09-01T02:22:43.551Z,0
2016-09-01T02:23:43.582Z,0
2016-09-01T02:24:43.554Z,0
2016-09-01T02:25:43.541Z,0
2016-09-01T02:26:43.555Z,0
2016-09-01T02:27:43.533Z,0
2016-09-01T02:28:43.527Z,0
2016-09-01T02:29:43.506Z,0
2016-09-01T02:30:43.530Z,0
2016-09-01T02:31:43.489Z,0
2016-09-01T02:32:43.471Z,0
2016-09-01T02:33:43.485Z,0
2016-09-01T02:34:43.483Z,0
2016-09-01T02:35:43.488Z,0
2016-09-01T02:36:43.427Z,0
2016-09-01T02:37:43.458Z,0
2016-09-01T02:38:43.736Z,0
2016-09-01T02:39:43.446Z,0
2016-09-01T02:40:43.416Z,0
2016-09-01T02:41:43.414Z,0
2016-09-01T02:42:43.424Z,0
2016-09-01T02:43:43.389Z,0
2016-09-01T02:44:43.380Z,0
2016-09-01T02:45:43.398Z,0
2016-09-01T02:46:44.083Z,0
2016-09-01T02:47:43.377Z,0
2016-09-01T02:48:43.335Z,0
2016-09-01T02:49:43.357Z,0
2016-09-01T02:50:43.337Z,0
2016-09-01T02:51:43.335Z,0
2016-09-01T02:52:43.317Z,0
2016-09-01T02:53:43.314Z,0
2016-09-01T02:54:43.285Z,0
2016-09-01T02:55:43.294Z,0
2016-09-01T02:56:43.288Z,0
2016-09-01T02:57:43.271Z,0
2016-09-01T02:58:43.289Z,0
2016-09-01T02:59:43.971Z,0
2016-09-01T03:00:43.258Z,0
2016-09-01T03:01:43.246Z,0
2016-09-01T03:02:43.230Z,0
2016-09-01T03:03:43.251Z,0
2016-09-01T03:04:43.205Z,0
2016-09-01T03:05:43.243Z,0
2016-09-01T03:06:43.213Z,0
2016-09-01T03:07:43.202Z,0
2016-09-01T03:08:43.197Z,0
2016-09-01T03:09:43.178Z,0
2016-09-01T03:10:43.161Z,0
2016-09-01T03:11:43.145Z,0
2016-09-01T03:12:43.157Z,0
2016-09-01T03:13:43.143Z,0
2016-09-01T03:14:43.118Z,0
2016-09-01T03:15:43.127Z,0
2016-09-01T03:16:43.130Z,0
2016-09-01T03:17:43.113Z,0
2016-09-01T03:18:43.139Z,0
2016-09-01T03:19:43.079Z,0
2016-09-01T03:20:43.097Z,0
2016-09-01T03:21:43.111Z,0
2016-09-01T03:22:43.090Z,0
2016-09-01T03:23:43.058Z,0
2016-09-01T03:24:43.078Z,0
2016-09-01T03:25:43.063Z,0
2016-09-01T03:26:43.042Z,0
2016-09-01T03:27:43.057Z,0
2016-09-01T03:28:43.026Z,0
2016-09-01T03:29:43.011Z,0
2016-09-01T03:30:43.017Z,0
2016-09-01T03:31:42.988Z,0
2016-09-01T03:32:43.002Z,0
2016-09-01T03:33:42.980Z,0
2016-09-01T03:34:42.989Z,0
2016-09-01T03:35:42.990Z,0
2016-09-01T03:36:43.001Z,0
2016-09-01T03:37:42.945Z,0
2016-09-01T03:38:42.941Z,0
2016-09-01T03:39:42.955Z,0
2016-09-01T03:40:42.931Z,0
2016-09-01T03:41:42.922Z,0
2016-09-01T03:42:42.890Z,0
2016-09-01T03:43:42.900Z,0
2016-09-01T03:44:42.880Z,0
2016-09-01T03:45:42.877Z,0
2016-09-01T03:46:42.898Z,0
2016-09-01T03:47:42.860Z,0
2016-09-01T03:48:42.886Z,0
2016-09-01T03:49:42.857Z,0
2016-09-01T03:50:42.831Z,0
2016-09-01T03:51:42.849Z,0
2016-09-01T03:52:42.818Z,0
2016-09-01T03:53:42.813Z,0
2016-09-01T03:54:42.794Z,0
2016-09-01T03:55:42.801Z,0
2016-09-01T03:56:42.808Z,0
2016-09-01T03:57:42.784Z,0
2016-09-01T03:58:43.469Z,0
2016-09-01T03:59:42.775Z,0
2016-09-01T04:00:42.772Z,0
2016-09-01T04:01:42.759Z,0
2016-09-01T04:02:42.734Z,4
2016-09-01T04:03:42.743Z,4
2016-09-01T04:04:42.732Z,0
2016-09-01T04:05:42.704Z,4
2016-09-01T04:06:42.723Z,4
2016-09-01T04:07:42.678Z,4
2016-09-01T04:08:42.699Z,4
2016-09-01T04:09:42.707Z,4
2016-09-01T04:10:42.666Z,4
2016-09-01T04:11:42.663Z,8
2016-09-01T04:12:42.695Z,12
2016-09-01T04:13:42.654Z,16
2016-09-01T04:14:42.656Z,16
2016-09-01T04:15:42.664Z,20
2016-09-01T04:16:42.612Z,20
2016-09-01T04:17:42.619Z,24
2016-09-01T04:18:42.616Z,24
2016-09-01T04:19:42.608Z,28
2016-09-01T04:20:42.679Z,32
2016-09-01T04:21:42.580Z,32
2016-09-01T04:22:42.570Z,36
2016-09-01T04:23:42.604Z,44
2016-09-01T04:24:42.560Z,48
2016-09-01T04:25:43.298Z,52
2016-09-01T04:26:42.551Z,56
2016-09-01T04:27:42.547Z,64
2016-09-01T04:28:42.540Z,72
2016-09-01T04:29:42.540Z,88
2016-09-01T04:30:42.510Z,104
2016-09-01T04:31:42.519Z,136
2016-09-01T04:32:42.508Z,176
2016-09-01T04:33:42.480Z,212
2016-09-01T04:34:42.505Z,224
2016-09-01T04:35:44.468Z,236
2016-09-01T04:36:42.453Z,260
2016-09-01T04:37:42.481Z,288
2016-09-01T04:38:42.480Z,288
2016-09-01T04:39:42.661Z,300
2016-09-01T04:40:42.428Z,340
2016-09-01T04:41:42.402Z,368
2016-09-01T04:42:42.431Z,344
2016-09-01T04:43:42.418Z,296
2016-09-01T04:44:42.388Z,316
2016-09-01T04:45:42.384Z,400
2016-09-01T04:46:42.381Z,412
2016-09-01T04:47:42.384Z,508
2016-09-01T04:48:42.377Z,608
2016-09-01T04:49:42.366Z,636
2016-09-01T04:50:42.356Z,640
2016-09-01T04:51:42.333Z,672
2016-09-01T04:52:42.323Z,792
2016-09-01T04:53:42.295Z,804
2016-09-01T04:54:42.312Z,812
2016-09-01T04:55:42.326Z,800
2016-09-01T04:56:42.322Z,788
2016-09-01T04:57:42.272Z,816
2016-09-01T04:58:42.287Z,904
2016-09-01T04:59:42.284Z,1024
2016-09-01T05:00:42.957Z,1108
2016-09-01T05:01:42.258Z,1140
2016-09-01T05:02:42.252Z,1120
2016-09-01T05:03:42.212Z,1060
2016-09-01T05:04:42.222Z,1036
2016-09-01T05:05:42.235Z,1072
2016-09-01T05:06:42.222Z,1140
2016-09-01T05:07:42.208Z,1212
2016-09-01T05:08:42.206Z,1252
2016-09-01T05:09:42.182Z,1304
2016-09-01T05:10:42.173Z,1360
2016-09-01T05:11:42.214Z,1392
2016-09-01T05:12:42.172Z,1388
2016-09-01T05:13:42.169Z,1392
2016-09-01T05:14:42.167Z,1436
2016-09-01T05:15:42.167Z,1516
2016-09-01T05:16:42.126Z,1640
2016-09-01T05:17:42.131Z,1812
2016-09-01T05:18:42.119Z,1984
2016-09-01T05:19:42.137Z,2136
2016-09-01T05:20:42.093Z,2360
2016-09-01T05:21:42.098Z,2400
2016-09-01T05:22:42.073Z,2320
2016-09-01T05:23:42.089Z,2284
2016-09-01T05:24:42.101Z,2292
2016-09-01T05:25:42.064Z,2292
2016-09-01T05:26:42.054Z,2236
2016-09-01T05:27:42.054Z,2144
2016-09-01T05:28:42.050Z,2132
2016-09-01T05:29:42.061Z,2308
2016-09-01T05:30:42.057Z,2700
2016-09-01T05:31:42.012Z,3244
2016-09-01T05:32:42.009Z,3960
2016-09-01T05:33:42.021Z,4708
2016-09-01T05:34:42.005Z,5264
2016-09-01T05:35:42.007Z,5464
2016-09-01T05:36:42.015Z,5484
2016-09-01T05:37:41.986Z,5728
2016-09-01T05:38:41.966Z,6156
2016-09-01T05:39:42.033Z,6556
2016-09-01T05:40:41.956Z,6872
2016-09-01T05:41:41.943Z,7184
2016-09-01T05:42:41.955Z,7548
2016-09-01T05:43:41.945Z,8072
2016-09-01T05:44:41.953Z,8412
2016-09-01T05:45:41.912Z,7992
2016-09-01T05:46:41.912Z,6516
2016-09-01T05:47:41.910Z,4612
2016-09-01T05:48:41.920Z,3348
2016-09-01T05:49:41.888Z,2876
2016-09-01T05:50:41.901Z,2872
2016-09-01T05:51:41.898Z,3104
2016-09-01T05:52:41.892Z,3160
2016-09-01T05:53:41.893Z,3004
2016-09-01T05:54:41.870Z,2940
2016-09-01T05:55:42.561Z,2844
2016-09-01T05:56:41.861Z,3036
2016-09-01T05:57:41.846Z,3780
2016-09-01T05:58:41.842Z,4352
2016-09-01T05:59:41.823Z,4308
2016-09-01T06:00:41.814Z,4204
2016-09-01T06:01:42.527Z,4408
2016-09-01T06:02:41.811Z,4576
2016-09-01T06:03:41.789Z,4272
2016-09-01T06:04:41.807Z,3716
2016-09-01T06:05:41.763Z,3320
2016-09-01T06:06:41.796Z,3348
2016-09-01T06:07:41.777Z,3232
2016-09-01T06:08:41.764Z,2516
2016-09-01T06:09:41.755Z,1832
2016-09-01T06:10:41.742Z,1816
2016-09-01T06:11:41.748Z,2424
2016-09-01T06:12:41.745Z,3288
2016-09-01T06:13:41.715Z,3508
2016-09-01T06:14:41.721Z,3360
2016-09-01T06:15:41.709Z,3160
2016-09-01T06:16:41.710Z,3672
2016-09-01T06:17:41.692Z,4024
2016-09-01T06:18:41.695Z,4112
2016-09-01T06:19:41.662Z,4004
2016-09-01T06:20:41.659Z,3572
2016-09-01T06:21:42.756Z,2964
2016-09-01T06:22:42.353Z,2524
2016-09-01T06:23:41.722Z,2560
2016-09-01T06:24:41.629Z,3360
2016-09-01T06:25:41.620Z,4420
2016-09-01T06:26:41.606Z,4480
2016-09-01T06:27:41.587Z,3364
2016-09-01T06:28:41.594Z,2588
2016-09-01T06:29:41.591Z,2172
2016-09-01T06:30:41.547Z,1692
2016-09-01T06:31:41.562Z,1520
2016-09-01T06:32:41.550Z,1532
2016-09-01T06:33:41.520Z,1660
2016-09-01T06:34:41.516Z,1840
2016-09-01T06:35:41.736Z,2004
2016-09-01T06:36:41.538Z,2528
2016-09-01T06:37:41.493Z,3084
2016-09-01T06:38:41.534Z,2632
2016-09-01T06:39:41.707Z,2324
2016-09-01T06:40:41.504Z,2296
2016-09-01T06:41:41.476Z,2092
2016-09-01T06:42:41.490Z,2024
2016-09-01T06:43:41.476Z,2400
2016-09-01T06:44:41.456Z,3068
2016-09-01T06:45:41.457Z,3520
2016-09-01T06:46:41.449Z,3992
2016-09-01T06:47:41.427Z,4432
2016-09-01T06:48:41.430Z,4164
2016-09-01T06:49:41.437Z,3220
2016-09-01T06:50:41.536Z,2556
2016-09-01T06:51:41.387Z,2852
2016-09-01T06:52:41.388Z,3088
2016-09-01T06:53:41.387Z,3792
2016-09-01T06:54:41.368Z,4252
2016-09-01T06:55:41.353Z,4900
2016-09-01T06:56:41.355Z,4924
2016-09-01T06:57:41.315Z,4328
2016-09-01T06:58:41.342Z,5412
2016-09-01T06:59:41.311Z,5800
2016-09-01T07:00:41.311Z,5700
2016-09-01T07:01:41.312Z,3572
2016-09-01T07:02:41.296Z,3224
2016-09-01T07:03:41.284Z,3212
2016-09-01T07:04:41.299Z,3616
2016-09-01T07:05:41.269Z,3400
2016-09-01T07:06:41.275Z,3040
2016-09-01T07:07:41.230Z,3312
2016-09-01T07:08:41.260Z,3592
2016-09-01T07:09:41.226Z,3164
2016-09-01T07:10:41.248Z,3172
2016-09-01T07:11:41.204Z,3064
2016-09-01T07:12:41.197Z,3180
2016-09-01T07:13:41.200Z,3700
2016-09-01T07:14:41.172Z,4020
2016-09-01T07:15:41.210Z,4216
2016-09-01T07:16:41.432Z,3144
2016-09-01T07:17:41.141Z,2728
2016-09-01T07:18:41.147Z,2512
2016-09-01T07:19:41.814Z,3296
2016-09-01T07:20:41.135Z,4232
2016-09-01T07:21:41.140Z,4608
2016-09-01T07:22:41.094Z,7296
2016-09-01T07:23:41.554Z,6548
2016-09-01T07:24:41.241Z,7588
2016-09-01T07:25:41.071Z,7532
2016-09-01T07:26:41.095Z,7904
2016-09-01T07:27:41.053Z,9212
2016-09-01T07:28:41.058Z,7812
2016-09-01T07:29:41.036Z,6344
2016-09-01T07:30:41.035Z,7468
2016-09-01T07:31:41.041Z,6420
2016-09-01T07:32:40.998Z,6424
2016-09-01T07:33:40.994Z,8320
2016-09-01T07:34:40.983Z,10464
2016-09-01T07:35:40.987Z,8444
2016-09-01T07:36:40.957Z,5820
2016-09-01T07:37:40.963Z,6124
2016-09-01T07:38:40.943Z,5292
2016-09-01T07:39:40.979Z,6096
2016-09-01T07:40:40.927Z,7096
2016-09-01T07:41:40.941Z,11112
2016-09-01T07:42:40.896Z,11584
2016-09-01T07:43:41.283Z,10404
2016-09-01T07:44:40.901Z,13696
2016-09-01T07:45:40.899Z,14460
2016-09-01T07:46:40.862Z,16320
2016-09-01T07:47:40.870Z,14832
2016-09-01T07:48:40.852Z,14380
2016-09-01T07:49:40.829Z,14336
2016-09-01T07:50:40.816Z,13796
2016-09-01T07:51:40.815Z,14500
2016-09-01T07:52:40.848Z,15532
2016-09-01T07:53:40.786Z,15932
2016-09-01T07:54:40.782Z,16976
2016-09-01T07:55:41.468Z,17856
2016-09-01T07:56:40.769Z,17792
2016-09-01T07:57:40.747Z,17984
2016-09-01T07:58:40.745Z,16848
2016-09-01T07:59:40.747Z,16032
2016-09-01T08:00:40.708Z,15712
2016-09-01T08:01:40.717Z,15520
2016-09-01T08:02:40.714Z,16032
2016-09-01T08:03:40.681Z,16760
2016-09-01T08:04:40.683Z,17792
2016-09-01T08:05:40.671Z,18400
2016-09-01T08:06:40.664Z,18624
2016-09-01T08:07:40.651Z,18528
2016-09-01T08:08:40.664Z,17920
2016-09-01T08:09:40.654Z,17020
2016-09-01T08:10:40.615Z,16164
2016-09-01T08:11:40.585Z,15304
2016-09-01T08:12:40.609Z,14756
2016-09-01T08:13:40.587Z,14540
2016-09-01T08:14:40.589Z,14480
2016-09-01T08:15:40.569Z,14136
2016-09-01T08:16:40.553Z,14000
2016-09-01T08:17:40.579Z,14304
2016-09-01T08:18:40.544Z,14804
2016-09-01T08:19:40.536Z,15392
2016-09-01T08:20:40.508Z,15592
2016-09-01T08:21:40.516Z,15744
2016-09-01T08:22:40.503Z,16160
2016-09-01T08:23:40.489Z,16520
2016-09-01T08:24:40.466Z,15992
2016-09-01T08:25:40.454Z,15548
2016-09-01T08:26:40.448Z,14604
2016-09-01T08:27:40.449Z,13556
2016-09-01T08:28:40.439Z,12584
2016-09-01T08:29:40.414Z,12124
2016-09-01T08:30:40.427Z,12540
2016-09-01T08:31:40.402Z,12656
2016-09-01T08:32:40.407Z,14424
2016-09-01T08:33:40.383Z,17984
2016-09-01T08:34:40.376Z,21088
2016-09-01T08:35:40.386Z,23968
2016-09-01T08:36:40.370Z,24736
2016-09-01T08:37:41.054Z,24448
2016-09-01T08:38:40.359Z,24192
2016-09-01T08:39:40.351Z,24096
2016-09-01T08:40:40.353Z,23968
2016-09-01T08:41:40.334Z,24096
2016-09-01T08:42:40.294Z,23616
2016-09-01T08:43:40.284Z,22688
2016-09-01T08:44:40.277Z,21952
2016-09-01T08:45:40.283Z,21152
2016-09-01T08:46:40.252Z,20384
2016-09-01T08:47:40.261Z,20256
2016-09-01T08:48:40.269Z,19744
2016-09-01T08:49:40.229Z,19104
2016-09-01T08:50:40.222Z,19744
2016-09-01T08:51:40.204Z,20576
2016-09-01T08:52:40.211Z,21440
2016-09-01T08:53:40.211Z,23648
2016-09-01T08:54:40.189Z,24928
2016-09-01T08:55:40.172Z,25312
2016-09-01T08:56:40.146Z,24640
2016-09-01T08:57:40.152Z,23776
2016-09-01T08:58:40.139Z,23808
2016-09-01T08:59:40.166Z,23328
2016-09-01T09:00:40.119Z,23168
2016-09-01T09:01:40.136Z,24864
2016-09-01T09:02:40.087Z,26720
2016-09-01T09:03:40.091Z,28832
2016-09-01T09:04:40.080Z,31008
2016-09-01T09:05:40.074Z,34016
2016-09-01T09:06:40.061Z,34816
2016-09-01T09:07:40.055Z,33440
2016-09-01T09:08:40.041Z,32000
2016-09-01T09:09:40.036Z,29664
2016-09-01T09:10:40.746Z,28928
2016-09-01T09:11:40.005Z,30336
2016-09-01T09:12:40.002Z,30880
2016-09-01T09:13:40.004Z,32640
2016-09-01T09:14:40.013Z,37440
2016-09-01T09:15:39.993Z,41952
2016-09-01T09:16:39.997Z,44416
2016-09-01T09:17:39.946Z,45024
2016-09-01T09:18:39.967Z,44608
2016-09-01T09:19:39.964Z,42528
2016-09-01T09:20:39.957Z,41728
2016-09-01T09:21:39.942Z,40480
2016-09-01T09:22:40.760Z,40128
2016-09-01T09:23:39.951Z,40736
2016-09-01T09:24:39.907Z,42144
2016-09-01T09:25:39.896Z,43264
2016-09-01T09:26:40.586Z,39616
2016-09-01T09:27:39.884Z,36064
2016-09-01T09:28:39.867Z,34528
2016-09-01T09:29:39.928Z,33920
2016-09-01T09:30:39.869Z,33920
2016-09-01T09:31:39.847Z,33760
2016-09-01T09:32:39.856Z,32928
2016-09-01T09:33:39.846Z,32160
2016-09-01T09:34:39.838Z,30976
2016-09-01T09:35:39.831Z,29728
2016-09-01T09:36:39.807Z,28736
2016-09-01T09:37:39.813Z,28576
2016-09-01T09:38:39.779Z,29216
2016-09-01T09:39:39.785Z,29728
2016-09-01T09:40:39.826Z,29568
2016-09-01T09:41:39.781Z,29216
2016-09-01T09:42:39.779Z,30112
2016-09-01T09:43:39.789Z,31296
2016-09-01T09:44:39.769Z,31328
2016-09-01T09:45:39.737Z,30048
2016-09-01T09:46:39.770Z,29440
2016-09-01T09:47:39.734Z,30944
2016-09-01T09:48:39.725Z,34080
2016-09-01T09:49:40.434Z,37568
2016-09-01T09:50:39.685Z,39328
2016-09-01T09:51:39.709Z,39776
2016-09-01T09:52:39.718Z,37824
2016-09-01T09:53:39.690Z,32992
2016-09-01T09:54:39.703Z,29024
2016-09-01T09:55:39.666Z,27520
2016-09-01T09:56:39.660Z,27488
2016-09-01T09:57:39.649Z,26976
2016-09-01T09:58:39.637Z,26784
2016-09-01T09:59:39.642Z,26080
2016-09-01T10:00:39.643Z,26432
2016-09-01T10:01:39.642Z,27552
2016-09-01T10:02:39.621Z,28992
2016-09-01T10:03:39.628Z,30944
2016-09-01T10:04:39.620Z,33920
2016-09-01T10:05:39.580Z,37376
2016-09-01T10:06:39.606Z,41536
2016-09-01T10:07:39.567Z,41568
2016-09-01T10:08:39.587Z,31168
2016-09-01T10:09:39.557Z,30144
2016-09-01T10:10:39.561Z,31808
2016-09-01T10:11:39.548Z,32864
2016-09-01T10:12:39.528Z,35200
2016-09-01T10:13:39.569Z,43776
2016-09-01T10:14:39.538Z,56320
2016-09-01T10:15:39.499Z,69472
2016-09-01T10:16:39.517Z,56064
2016-09-01T10:17:39.520Z,46944
2016-09-01T10:18:39.527Z,45184
2016-09-01T10:19:39.515Z,44192
2016-09-01T10:20:39.488Z,37088
2016-09-01T10:21:39.519Z,30752
2016-09-01T10:22:39.479Z,26432
2016-09-01T10:23:39.475Z,22176
2016-09-01T10:24:39.465Z,18720
2016-09-01T10:25:39.437Z,17376
2016-09-01T10:26:39.449Z,18848
2016-09-01T10:27:39.418Z,19744
2016-09-01T10:28:39.415Z,22240
2016-09-01T10:29:39.441Z,26784
2016-09-01T10:30:39.416Z,25984
2016-09-01T10:31:39.399Z,24352
2016-09-01T10:32:39.399Z,21760
2016-09-01T10:33:39.384Z,24128
2016-09-01T10:34:39.375Z,24864
2016-09-01T10:35:40.965Z,23424
2016-09-01T10:36:39.356Z,24224
2016-09-01T10:37:39.392Z,21152
2016-09-01T10:38:39.353Z,20064
2016-09-01T10:39:39.355Z,20480
2016-09-01T10:40:40.238Z,22784
2016-09-01T10:41:39.361Z,21824
2016-09-01T10:42:39.320Z,21920
2016-09-01T10:43:39.304Z,24512
2016-09-01T10:44:39.285Z,27616
2016-09-01T10:45:39.303Z,25632
2016-09-01T10:46:39.281Z,22016
2016-09-01T10:47:39.277Z,20672
2016-09-01T10:48:39.948Z,18208
2016-09-01T10:49:39.252Z,16404
2016-09-01T10:50:39.289Z,17664
2016-09-01T10:51:39.251Z,20928
2016-09-01T10:52:39.247Z,26336
2016-09-01T10:53:39.232Z,30656
2016-09-01T10:54:39.222Z,34976
2016-09-01T10:55:39.221Z,37536
2016-09-01T10:56:39.692Z,40800
2016-09-01T10:57:39.206Z,41024
2016-09-01T10:58:39.206Z,40576
2016-09-01T10:59:39.169Z,42560
2016-09-01T11:00:39.159Z,42048
2016-09-01T11:01:39.188Z,43168
2016-09-01T11:02:39.178Z,53536
2016-09-01T11:03:39.136Z,55200
2016-09-01T11:04:39.145Z,53600
2016-09-01T11:05:39.131Z,52704
2016-09-01T11:06:39.128Z,58016
2016-09-01T11:07:39.128Z,64000
2016-09-01T11:08:39.111Z,58400
2016-09-01T11:09:39.118Z,45152
2016-09-01T11:10:39.091Z,41760
2016-09-01T11:11:39.085Z,44512
2016-09-01T11:12:39.082Z,41920
2016-09-01T11:13:39.058Z,43424
2016-09-01T11:14:39.053Z,41216
2016-09-01T11:15:39.066Z,34976
2016-09-01T11:16:39.037Z,33120
2016-09-01T11:17:39.031Z,34144
2016-09-01T11:18:39.043Z,40000
2016-09-01T11:19:39.014Z,61856
2016-09-01T11:20:39.015Z,77600
2016-09-01T11:21:39.020Z,79072
2016-09-01T11:22:38.984Z,61344
2016-09-01T11:23:39.749Z,56128
2016-09-01T11:24:39.005Z,50560
2016-09-01T11:25:39.007Z,39136
2016-09-01T11:26:38.971Z,27296
2016-09-01T11:27:38.955Z,21952
2016-09-01T11:28:38.969Z,19680
2016-09-01T11:29:38.950Z,15232
2016-09-01T11:30:38.949Z,11020
2016-09-01T11:31:38.925Z,8508
2016-09-01T11:32:38.938Z,8868
2016-09-01T11:33:38.908Z,10044
2016-09-01T11:34:38.949Z,13000
2016-09-01T11:35:38.888Z,15312
2016-09-01T11:36:38.899Z,19040
2016-09-01T11:37:38.918Z,22496
2016-09-01T11:38:38.908Z,23616
2016-09-01T11:39:38.874Z,26848
2016-09-01T11:40:39.088Z,29536
2016-09-01T11:41:38.866Z,40256
2016-09-01T11:42:38.876Z,37408
2016-09-01T11:43:38.866Z,38560
2016-09-01T11:44:38.858Z,40896
2016-09-01T11:45:38.839Z,45440
2016-09-01T11:46:38.836Z,41760
2016-09-01T11:47:38.827Z,42592
2016-09-01T11:48:38.815Z,38336
2016-09-01T11:49:38.806Z,27424
2016-09-01T11:50:38.794Z,25728
2016-09-01T11:51:38.892Z,33600
2016-09-01T11:52:38.815Z,36352
2016-09-01T11:53:38.802Z,35424
2016-09-01T11:54:38.772Z,31648
2016-09-01T11:55:38.785Z,42528
2016-09-01T11:56:38.763Z,72576
2016-09-01T11:57:38.744Z,54432
2016-09-01T11:58:38.740Z,49120
2016-09-01T11:59:38.752Z,85664
2016-09-01T12:00:38.734Z,81888
2016-09-01T12:01:38.702Z,62784
2016-09-01T12:02:38.719Z,155712
2016-09-01T12:03:38.722Z,128896
2016-09-01T12:04:38.703Z,71168
2016-09-01T12:05:38.713Z,65600
2016-09-01T12:06:38.705Z,52512
2016-09-01T12:07:38.697Z,53856
2016-09-01T12:08:38.662Z,45920
2016-09-01T12:09:38.664Z,42304
2016-09-01T12:10:38.657Z,42688
2016-09-01T12:11:38.658Z,38208
2016-09-01T12:12:38.658Z,41280
2016-09-01T12:13:38.652Z,40384
2016-09-01T12:14:38.647Z,36608
2016-09-01T12:15:38.636Z,35840
2016-09-01T12:16:38.639Z,37056
2016-09-01T12:17:38.617Z,35072
2016-09-01T12:18:38.625Z,30784
2016-09-01T12:19:38.604Z,25376
2016-09-01T12:20:38.610Z,27040
2016-09-01T12:21:38.633Z,25280
2016-09-01T12:22:38.586Z,23360
2016-09-01T12:23:38.593Z,20672
2016-09-01T12:24:39.259Z,16656
2016-09-01T12:25:38.556Z,16376
2016-09-01T12:26:38.566Z,20096
2016-09-01T12:27:38.579Z,21120
2016-09-01T12:28:38.531Z,21568
2016-09-01T12:29:38.531Z,21440
2016-09-01T12:30:38.523Z,17760
2016-09-01T12:31:38.516Z,13912
2016-09-01T12:32:38.527Z,13064
2016-09-01T12:33:38.523Z,11232
2016-09-01T12:34:38.489Z,10440
2016-09-01T12:35:38.498Z,8512
2016-09-01T12:36:38.471Z,9184
2016-09-01T12:37:38.482Z,10576
2016-09-01T12:38:38.464Z,13516
2016-09-01T12:39:38.459Z,17288
2016-09-01T12:40:39.301Z,23040
2016-09-01T12:41:38.426Z,23232
2016-09-01T12:42:38.409Z,17440
2016-09-01T12:43:38.432Z,15980
2016-09-01T12:44:38.403Z,17408
2016-09-01T12:45:38.425Z,20832
2016-09-01T12:46:38.386Z,24384
2016-09-01T12:47:38.389Z,27392
2016-09-01T12:48:38.384Z,30080
2016-09-01T12:49:38.367Z,30976
2016-09-01T12:50:38.349Z,27488
2016-09-01T12:51:38.353Z,36384
2016-09-01T12:52:39.199Z,39392
2016-09-01T12:53:38.327Z,35712
2016-09-01T12:54:38.325Z,32032
2016-09-01T12:55:38.324Z,30528
2016-09-01T12:56:38.296Z,31392
2016-09-01T12:57:38.986Z,37600
2016-09-01T12:58:38.274Z,40160
2016-09-01T12:59:38.291Z,38880
2016-09-01T13:00:38.246Z,30496
2016-09-01T13:01:38.258Z,25568
2016-09-01T13:02:38.281Z,30400
2016-09-01T13:03:38.958Z,36160
2016-09-01T13:04:38.239Z,36224
2016-09-01T13:05:38.246Z,32320
2016-09-01T13:06:38.206Z,35904
2016-09-01T13:07:38.221Z,36096
2016-09-01T13:08:38.193Z,42976
2016-09-01T13:09:38.207Z,46176
2016-09-01T13:10:38.188Z,58304
2016-09-01T13:11:38.190Z,73440
2016-09-01T13:12:38.180Z,40896
2016-09-01T13:13:38.151Z,40960
2016-09-01T13:14:38.170Z,38080
2016-09-01T13:15:38.150Z,29056
2016-09-01T13:16:38.136Z,31616
2016-09-01T13:17:38.141Z,36864
2016-09-01T13:18:38.122Z,36832
2016-09-01T13:19:38.110Z,37536
2016-09-01T13:20:38.105Z,54944
2016-09-01T13:21:38.086Z,50656
2016-09-01T13:22:38.096Z,48896
2016-09-01T13:23:38.109Z,54720
2016-09-01T13:24:38.071Z,33824
2016-09-01T13:25:38.085Z,33248
2016-09-01T13:26:38.046Z,31904
2016-09-01T13:27:38.848Z,39168
2016-09-01T13:28:38.047Z,28416
2016-09-01T13:29:38.476Z,19840
2016-09-01T13:30:38.001Z,20544
2016-09-01T13:31:38.123Z,24704
2016-09-01T13:32:38.504Z,23424
2016-09-01T13:33:37.992Z,18976
2016-09-01T13:34:38.006Z,12012